sensor_id;sensor_type;location;lat;lon;timestamp;temperature;humidity
2913;DHT22;1466;48.778;9.166;2022-07-10T00:00:25;20.20;99.80
2913;DHT22;1466;48.778;9.166;2022-07-10T00:02:51;20.20;99.90
2913;DHT22;1466;48.778;9.166;2022-07-10T00:05:21;20.10;99.90
2913;DHT22;1466;48.778;9.166;2022-07-10T00:07:48;20.20;99.90
2913;DHT22;1466;48.778;9.166;2022-07-10T00:10:14;20.20;99.90
2913;DHT22;1466;48.778;9.166;2022-07-10T00:12:40;20.30;99.90
2913;DHT22;1466;48.778;9.166;2022-07-10T00:15:06;20.30;99.90
2913;DHT22;1466;48.778;9.166;2022-07-10T00:17:32;20.30;99.90
2913;DHT22;1466;48.778;9.166;2022-07-10T00:19:58;20.30;99.90
2913;DHT22;1466;48.778;9.166;2022-07-10T00:22:24;20.40;99.90
2913;DHT22;1466;48.778;9.166;2022-07-10T00:24:50;20.40;99.90
2913;DHT22;1466;48.778;9.166;2022-07-10T00:27:17;20.40;99.90
2913;DHT22;1466;48.778;9.166;2022-07-10T00:29:43;20.40;99.90
2913;DHT22;1466;48.778;9.166;2022-07-10T00:32:10;20.50;99.90
2913;DHT22;1466;48.778;9.166;2022-07-10T00:34:36;20.40;99.90
2913;DHT22;1466;48.778;9.166;2022-07-10T00:37:03;20.50;99.90
2913;DHT22;1466;48.778;9.166;2022-07-10T00:39:29;20.50;99.90
2913;DHT22;1466;48.778;9.166;2022-07-10T00:41:55;20.50;99.90
2913;DHT22;1466;48.778;9.166;2022-07-10T00:44:20;20.50;99.70
2913;DHT22;1466;48.778;9.166;2022-07-10T00:46:46;20.50;99.70
2913;DHT22;1466;48.778;9.166;2022-07-10T00:49:12;20.50;99.70
2913;DHT22;1466;48.778;9.166;2022-07-10T00:51:37;20.50;99.90
2913;DHT22;1466;48.778;9.166;2022-07-10T00:54:05;20.60;99.50
2913;DHT22;1466;48.778;9.166;2022-07-10T00:56:31;20.50;99.20
2913;DHT22;1466;48.778;9.166;2022-07-10T00:58:57;20.40;99.00
2913;DHT22;1466;48.778;9.166;2022-07-10T01:01:23;20.30;99.00
2913;DHT22;1466;48.778;9.166;2022-07-10T01:03:49;20.30;99.10
2913;DHT22;1466;48.778;9.166;2022-07-10T01:06:16;20.30;99.00
2913;DHT22;1466;48.778;9.166;2022-07-10T01:08:43;20.30;98.90
2913;DHT22;1466;48.778;9.166;2022-07-10T01:11:09;20.30;98.80
2913;DHT22;1466;48.778;9.166;2022-07-10T01:13:35;20.20;98.70
2913;DHT22;1466;48.778;9.166;2022-07-10T01:16:02;20.10;98.80
2913;DHT22;1466;48.778;9.166;2022-07-10T01:18:28;20.00;98.90
2913;DHT22;1466;48.778;9.166;2022-07-10T01:20:54;20.00;99.00
2913;DHT22;1466;48.778;9.166;2022-07-10T01:23:20;20.00;98.90
2913;DHT22;1466;48.778;9.166;2022-07-10T01:25:47;19.90;98.90
2913;DHT22;1466;48.778;9.166;2022-07-10T01:28:13;19.90;99.00
2913;DHT22;1466;48.778;9.166;2022-07-10T01:30:39;19.90;99.20
2913;DHT22;1466;48.778;9.166;2022-07-10T01:33:07;19.90;99.10
2913;DHT22;1466;48.778;9.166;2022-07-10T01:35:33;19.90;99.00
2913;DHT22;1466;48.778;9.166;2022-07-10T01:37:58;19.90;98.90
2913;DHT22;1466;48.778;9.166;2022-07-10T01:40:24;19.90;98.90
2913;DHT22;1466;48.778;9.166;2022-07-10T01:42:50;19.90;98.90
2913;DHT22;1466;48.778;9.166;2022-07-10T01:45:16;19.80;98.90
2913;DHT22;1466;48.778;9.166;2022-07-10T01:47:43;19.70;99.00
2913;DHT22;1466;48.778;9.166;2022-07-10T01:50:09;19.70;99.10
2913;DHT22;1466;48.778;9.166;2022-07-10T01:52:35;19.70;99.10
2913;DHT22;1466;48.778;9.166;2022-07-10T01:55:01;19.70;99.10
2913;DHT22;1466;48.778;9.166;2022-07-10T01:57:27;19.60;99.10
2913;DHT22;1466;48.778;9.166;2022-07-10T01:59:53;19.60;99.30
2913;DHT22;1466;48.778;9.166;2022-07-10T02:02:18;19.50;99.30
2913;DHT22;1466;48.778;9.166;2022-07-10T02:04:44;19.50;99.30
2913;DHT22;1466;48.778;9.166;2022-07-10T02:07:15;19.50;99.30
2913;DHT22;1466;48.778;9.166;2022-07-10T02:09:41;19.50;99.50
2913;DHT22;1466;48.778;9.166;2022-07-10T02:12:09;19.40;99.60
2913;DHT22;1466;48.778;9.166;2022-07-10T02:14:35;19.40;99.60
2913;DHT22;1466;48.778;9.166;2022-07-10T02:17:01;19.50;99.70
2913;DHT22;1466;48.778;9.166;2022-07-10T02:19:26;19.40;99.70
2913;DHT22;1466;48.778;9.166;2022-07-10T02:21:52;19.30;99.90
2913;DHT22;1466;48.778;9.166;2022-07-10T02:24:18;19.30;99.90
2913;DHT22;1466;48.778;9.166;2022-07-10T02:26:43;19.10;99.90
2913;DHT22;1466;48.778;9.166;2022-07-10T02:29:09;19.00;99.90
2913;DHT22;1466;48.778;9.166;2022-07-10T02:31:35;18.90;99.90
2913;DHT22;1466;48.778;9.166;2022-07-10T02:34:06;18.90;99.90
2913;DHT22;1466;48.778;9.166;2022-07-10T02:36:31;18.90;99.90
2913;DHT22;1466;48.778;9.166;2022-07-10T02:38:57;18.90;99.90
2913;DHT22;1466;48.778;9.166;2022-07-10T02:41:23;18.80;99.90
2913;DHT22;1466;48.778;9.166;2022-07-10T02:43:48;18.80;99.90
2913;DHT22;1466;48.778;9.166;2022-07-10T02:46:14;18.80;99.90
2913;DHT22;1466;48.778;9.166;2022-07-10T02:48:39;18.80;99.90
2913;DHT22;1466;48.778;9.166;2022-07-10T02:51:05;18.90;99.90
2913;DHT22;1466;48.778;9.166;2022-07-10T02:53:31;19.00;99.90
2913;DHT22;1466;48.778;9.166;2022-07-10T02:55:56;19.00;99.90
2913;DHT22;1466;48.778;9.166;2022-07-10T02:58:22;19.00;99.90
2913;DHT22;1466;48.778;9.166;2022-07-10T03:00:48;18.90;99.90
2913;DHT22;1466;48.778;9.166;2022-07-10T03:03:13;18.90;99.90
2913;DHT22;1466;48.778;9.166;2022-07-10T03:05:39;18.90;99.90
2913;DHT22;1466;48.778;9.166;2022-07-10T03:08:05;18.80;99.90
2913;DHT22;1466;48.778;9.166;2022-07-10T03:10:30;18.60;99.90
2913;DHT22;1466;48.778;9.166;2022-07-10T03:12:56;18.60;99.90
2913;DHT22;1466;48.778;9.166;2022-07-10T03:15:21;18.60;99.90
2913;DHT22;1466;48.778;9.166;2022-07-10T03:17:47;18.60;99.90
2913;DHT22;1466;48.778;9.166;2022-07-10T03:20:12;18.60;99.90
2913;DHT22;1466;48.778;9.166;2022-07-10T03:22:38;18.70;99.90
2913;DHT22;1466;48.778;9.166;2022-07-10T03:25:04;18.60;99.90
2913;DHT22;1466;48.778;9.166;2022-07-10T03:27:30;18.60;99.90
2913;DHT22;1466;48.778;9.166;2022-07-10T03:29:56;18.60;99.90
2913;DHT22;1466;48.778;9.166;2022-07-10T03:32:21;18.60;99.90
2913;DHT22;1466;48.778;9.166;2022-07-10T03:34:47;18.70;99.90
2913;DHT22;1466;48.778;9.166;2022-07-10T03:37:13;18.60;99.90
2913;DHT22;1466;48.778;9.166;2022-07-10T03:39:38;18.60;99.90
2913;DHT22;1466;48.778;9.166;2022-07-10T03:42:04;18.60;99.90
2913;DHT22;1466;48.778;9.166;2022-07-10T03:44:31;18.60;99.90
2913;DHT22;1466;48.778;9.166;2022-07-10T03:46:57;18.60;99.90
2913;DHT22;1466;48.778;9.166;2022-07-10T03:49:23;18.70;99.90
2913;DHT22;1466;48.778;9.166;2022-07-10T03:51:49;18.60;99.90
2913;DHT22;1466;48.778;9.166;2022-07-10T03:54:15;18.50;99.90
2913;DHT22;1466;48.778;9.166;2022-07-10T03:56:40;18.50;99.90
2913;DHT22;1466;48.778;9.166;2022-07-10T03:59:24;18.50;99.90
2913;DHT22;1466;48.778;9.166;2022-07-10T04:01:50;18.50;99.90
2913;DHT22;1466;48.778;9.166;2022-07-10T04:04:15;18.60;99.90
2913;DHT22;1466;48.778;9.166;2022-07-10T04:06:41;18.60;99.90
2913;DHT22;1466;48.778;9.166;2022-07-10T04:09:06;18.60;99.90
2913;DHT22;1466;48.778;9.166;2022-07-10T04:11:32;18.50;99.90
2913;DHT22;1466;48.778;9.166;2022-07-10T04:13:58;18.40;99.90
2913;DHT22;1466;48.778;9.166;2022-07-10T04:16:23;18.50;99.90
2913;DHT22;1466;48.778;9.166;2022-07-10T04:18:49;18.50;99.90
2913;DHT22;1466;48.778;9.166;2022-07-10T04:21:15;18.40;99.90
2913;DHT22;1466;48.778;9.166;2022-07-10T04:23:40;18.30;99.90
2913;DHT22;1466;48.778;9.166;2022-07-10T04:26:06;18.20;99.90
2913;DHT22;1466;48.778;9.166;2022-07-10T04:28:31;18.20;99.90
2913;DHT22;1466;48.778;9.166;2022-07-10T04:30:57;18.20;99.90
2913;DHT22;1466;48.778;9.166;2022-07-10T04:33:23;18.20;99.90
2913;DHT22;1466;48.778;9.166;2022-07-10T04:35:49;18.20;99.90
2913;DHT22;1466;48.778;9.166;2022-07-10T04:38:14;18.20;99.90
2913;DHT22;1466;48.778;9.166;2022-07-10T04:40:40;18.20;99.90
2913;DHT22;1466;48.778;9.166;2022-07-10T04:43:05;18.20;99.90
2913;DHT22;1466;48.778;9.166;2022-07-10T04:45:31;18.20;99.90
2913;DHT22;1466;48.778;9.166;2022-07-10T04:47:56;18.20;99.90
2913;DHT22;1466;48.778;9.166;2022-07-10T04:50:22;18.20;99.90
2913;DHT22;1466;48.778;9.166;2022-07-10T04:52:48;18.30;99.90
2913;DHT22;1466;48.778;9.166;2022-07-10T04:55:14;18.30;99.90
2913;DHT22;1466;48.778;9.166;2022-07-10T04:57:40;18.40;99.90
2913;DHT22;1466;48.778;9.166;2022-07-10T05:00:10;18.40;99.90
2913;DHT22;1466;48.778;9.166;2022-07-10T05:02:36;18.30;99.90
2913;DHT22;1466;48.778;9.166;2022-07-10T05:05:02;18.40;99.90
2913;DHT22;1466;48.778;9.166;2022-07-10T05:07:28;18.40;99.90
2913;DHT22;1466;48.778;9.166;2022-07-10T05:09:53;18.50;99.90
2913;DHT22;1466;48.778;9.166;2022-07-10T05:12:19;18.50;99.90
2913;DHT22;1466;48.778;9.166;2022-07-10T05:14:45;18.50;99.90
2913;DHT22;1466;48.778;9.166;2022-07-10T05:17:10;18.50;99.90
2913;DHT22;1466;48.778;9.166;2022-07-10T05:19:36;18.50;99.90
2913;DHT22;1466;48.778;9.166;2022-07-10T05:22:01;18.50;99.90
2913;DHT22;1466;48.778;9.166;2022-07-10T05:24:27;18.50;99.90
2913;DHT22;1466;48.778;9.166;2022-07-10T05:26:53;18.60;99.90
2913;DHT22;1466;48.778;9.166;2022-07-10T05:29:18;18.60;99.90
2913;DHT22;1466;48.778;9.166;2022-07-10T05:31:44;18.60;99.90
2913;DHT22;1466;48.778;9.166;2022-07-10T05:34:09;18.70;99.90
2913;DHT22;1466;48.778;9.166;2022-07-10T05:36:35;18.70;99.90
2913;DHT22;1466;48.778;9.166;2022-07-10T05:39:01;18.70;99.90
2913;DHT22;1466;48.778;9.166;2022-07-10T05:41:26;18.70;99.90
2913;DHT22;1466;48.778;9.166;2022-07-10T05:43:53;18.80;99.90
2913;DHT22;1466;48.778;9.166;2022-07-10T05:46:19;18.70;99.90
2913;DHT22;1466;48.778;9.166;2022-07-10T05:48:44;18.50;99.90
2913;DHT22;1466;48.778;9.166;2022-07-10T05:51:10;18.50;99.90
2913;DHT22;1466;48.778;9.166;2022-07-10T05:53:36;18.60;99.90
2913;DHT22;1466;48.778;9.166;2022-07-10T05:56:02;18.60;99.90
2913;DHT22;1466;48.778;9.166;2022-07-10T05:58:28;18.70;99.90
2913;DHT22;1466;48.778;9.166;2022-07-10T06:00:55;18.70;99.90
2913;DHT22;1466;48.778;9.166;2022-07-10T06:03:20;18.80;99.90
2913;DHT22;1466;48.778;9.166;2022-07-10T06:05:47;18.70;99.90
2913;DHT22;1466;48.778;9.166;2022-07-10T06:08:12;18.80;99.90
2913;DHT22;1466;48.778;9.166;2022-07-10T06:10:39;18.80;99.60
2913;DHT22;1466;48.778;9.166;2022-07-10T06:13:06;18.60;99.20
2913;DHT22;1466;48.778;9.166;2022-07-10T06:15:31;18.50;99.50
2913;DHT22;1466;48.778;9.166;2022-07-10T06:17:57;18.70;99.90
2913;DHT22;1466;48.778;9.166;2022-07-10T06:20:24;18.70;99.50
2913;DHT22;1466;48.778;9.166;2022-07-10T06:22:50;18.90;99.50
2913;DHT22;1466;48.778;9.166;2022-07-10T06:25:16;19.00;99.10
2913;DHT22;1466;48.778;9.166;2022-07-10T06:27:41;18.90;98.80
2913;DHT22;1466;48.778;9.166;2022-07-10T06:30:07;18.80;98.90
2913;DHT22;1466;48.778;9.166;2022-07-10T06:32:33;18.70;99.00
2913;DHT22;1466;48.778;9.166;2022-07-10T06:34:59;18.60;99.00
2913;DHT22;1466;48.778;9.166;2022-07-10T06:37:24;18.60;98.90
2913;DHT22;1466;48.778;9.166;2022-07-10T06:39:50;18.60;98.70
2913;DHT22;1466;48.778;9.166;2022-07-10T06:42:16;18.50;98.40
2913;DHT22;1466;48.778;9.166;2022-07-10T06:44:43;18.50;98.50
2913;DHT22;1466;48.778;9.166;2022-07-10T06:47:09;18.40;98.70
2913;DHT22;1466;48.778;9.166;2022-07-10T06:49:54;18.50;98.70
2913;DHT22;1466;48.778;9.166;2022-07-10T06:52:20;18.50;98.50
2913;DHT22;1466;48.778;9.166;2022-07-10T06:54:46;18.50;98.10
2913;DHT22;1466;48.778;9.166;2022-07-10T06:57:12;18.30;98.30
2913;DHT22;1466;48.778;9.166;2022-07-10T06:59:38;18.30;98.50
2913;DHT22;1466;48.778;9.166;2022-07-10T07:02:05;18.30;98.60
2913;DHT22;1466;48.778;9.166;2022-07-10T07:04:31;18.30;98.60
2913;DHT22;1466;48.778;9.166;2022-07-10T07:06:56;18.50;98.80
2913;DHT22;1466;48.778;9.166;2022-07-10T07:09:22;18.60;98.20
2913;DHT22;1466;48.778;9.166;2022-07-10T07:11:48;18.70;97.50
2913;DHT22;1466;48.778;9.166;2022-07-10T07:14:13;18.90;97.00
2913;DHT22;1466;48.778;9.166;2022-07-10T07:16:39;18.80;96.20
2913;DHT22;1466;48.778;9.166;2022-07-10T07:19:09;18.80;96.30
2913;DHT22;1466;48.778;9.166;2022-07-10T07:21:37;18.80;96.20
2913;DHT22;1466;48.778;9.166;2022-07-10T07:24:21;18.60;96.40
2913;DHT22;1466;48.778;9.166;2022-07-10T07:26:47;18.70;96.70
2913;DHT22;1466;48.778;9.166;2022-07-10T07:29:16;18.80;96.70
2913;DHT22;1466;48.778;9.166;2022-07-10T07:31:42;18.80;96.60
2913;DHT22;1466;48.778;9.166;2022-07-10T07:34:08;18.70;96.00
2913;DHT22;1466;48.778;9.166;2022-07-10T07:36:34;18.80;96.00
2913;DHT22;1466;48.778;9.166;2022-07-10T07:38:59;19.00;95.80
2913;DHT22;1466;48.778;9.166;2022-07-10T07:41:25;19.00;95.60
2913;DHT22;1466;48.778;9.166;2022-07-10T07:43:51;19.10;95.40
2913;DHT22;1466;48.778;9.166;2022-07-10T07:46:18;19.00;95.00
2913;DHT22;1466;48.778;9.166;2022-07-10T07:48:44;19.20;95.30
2913;DHT22;1466;48.778;9.166;2022-07-10T07:51:09;19.20;95.00
2913;DHT22;1466;48.778;9.166;2022-07-10T07:53:35;19.40;94.80
2913;DHT22;1466;48.778;9.166;2022-07-10T07:56:01;19.40;94.50
2913;DHT22;1466;48.778;9.166;2022-07-10T07:58:27;19.50;94.30
2913;DHT22;1466;48.778;9.166;2022-07-10T08:00:52;19.70;94.10
2913;DHT22;1466;48.778;9.166;2022-07-10T08:03:18;19.60;93.70
2913;DHT22;1466;48.778;9.166;2022-07-10T08:05:44;19.60;93.50
2913;DHT22;1466;48.778;9.166;2022-07-10T08:08:09;19.50;93.10
2913;DHT22;1466;48.778;9.166;2022-07-10T08:10:36;19.40;93.00
2913;DHT22;1466;48.778;9.166;2022-07-10T08:13:02;19.50;93.40
2913;DHT22;1466;48.778;9.166;2022-07-10T08:15:28;19.60;93.10
2913;DHT22;1466;48.778;9.166;2022-07-10T08:17:55;19.50;92.30
2913;DHT22;1466;48.778;9.166;2022-07-10T08:20:21;19.60;92.00
2913;DHT22;1466;48.778;9.166;2022-07-10T08:22:48;19.40;92.20
2913;DHT22;1466;48.778;9.166;2022-07-10T08:25:14;19.40;92.30
2913;DHT22;1466;48.778;9.166;2022-07-10T08:27:40;19.60;92.30
2913;DHT22;1466;48.778;9.166;2022-07-10T08:30:07;19.70;92.10
2913;DHT22;1466;48.778;9.166;2022-07-10T08:32:35;19.90;91.70
2913;DHT22;1466;48.778;9.166;2022-07-10T08:35:01;20.00;91.30
2913;DHT22;1466;48.778;9.166;2022-07-10T08:37:27;19.90;91.40
2913;DHT22;1466;48.778;9.166;2022-07-10T08:39:53;20.00;91.30
2913;DHT22;1466;48.778;9.166;2022-07-10T08:42:19;20.00;91.10
2913;DHT22;1466;48.778;9.166;2022-07-10T08:44:46;19.90;91.30
2913;DHT22;1466;48.778;9.166;2022-07-10T08:47:12;19.70;91.60
2913;DHT22;1466;48.778;9.166;2022-07-10T08:49:40;19.70;91.70
2913;DHT22;1466;48.778;9.166;2022-07-10T08:52:13;19.80;91.70
2913;DHT22;1466;48.778;9.166;2022-07-10T08:54:43;20.00;91.60
2913;DHT22;1466;48.778;9.166;2022-07-10T08:57:10;20.40;91.40
2913;DHT22;1466;48.778;9.166;2022-07-10T08:59:36;20.50;90.90
2913;DHT22;1466;48.778;9.166;2022-07-10T09:02:02;20.60;90.30
2913;DHT22;1466;48.778;9.166;2022-07-10T09:04:28;20.60;89.30
2913;DHT22;1466;48.778;9.166;2022-07-10T09:06:54;20.50;88.00
2913;DHT22;1466;48.778;9.166;2022-07-10T09:09:20;20.40;88.30
2913;DHT22;1466;48.778;9.166;2022-07-10T09:11:46;20.40;88.60
2913;DHT22;1466;48.778;9.166;2022-07-10T09:14:16;20.30;88.70
2913;DHT22;1466;48.778;9.166;2022-07-10T09:16:44;20.30;88.40
2913;DHT22;1466;48.778;9.166;2022-07-10T09:19:21;20.30;88.40
2913;DHT22;1466;48.778;9.166;2022-07-10T09:21:49;20.50;88.60
2913;DHT22;1466;48.778;9.166;2022-07-10T09:24:15;20.70;87.20
2913;DHT22;1466;48.778;9.166;2022-07-10T09:27:08;20.70;85.90
2913;DHT22;1466;48.778;9.166;2022-07-10T09:29:51;20.70;85.80
2913;DHT22;1466;48.778;9.166;2022-07-10T09:32:24;20.80;84.80
2913;DHT22;1466;48.778;9.166;2022-07-10T09:34:52;20.90;83.90
2913;DHT22;1466;48.778;9.166;2022-07-10T09:37:42;20.70;84.10
2913;DHT22;1466;48.778;9.166;2022-07-10T09:40:08;20.50;83.50
2913;DHT22;1466;48.778;9.166;2022-07-10T09:47:44;20.30;84.70
2913;DHT22;1466;48.778;9.166;2022-07-10T09:53:03;21.30;83.20
2913;DHT22;1466;48.778;9.166;2022-07-10T09:55:30;22.20;81.20
2913;DHT22;1466;48.778;9.166;2022-07-10T09:58:01;22.00;79.60
2913;DHT22;1466;48.778;9.166;2022-07-10T10:00:32;21.80;80.10
2913;DHT22;1466;48.778;9.166;2022-07-10T10:02:59;21.90;80.10
2913;DHT22;1466;48.778;9.166;2022-07-10T10:08:10;21.80;79.50
2913;DHT22;1466;48.778;9.166;2022-07-10T10:10:42;22.00;78.60
2913;DHT22;1466;48.778;9.166;2022-07-10T10:13:10;21.80;78.50
2913;DHT22;1466;48.778;9.166;2022-07-10T10:15:37;21.40;78.90
2913;DHT22;1466;48.778;9.166;2022-07-10T10:18:03;21.20;80.10
2913;DHT22;1466;48.778;9.166;2022-07-10T10:20:32;21.20;80.70
2913;DHT22;1466;48.778;9.166;2022-07-10T10:23:05;21.50;80.80
2913;DHT22;1466;48.778;9.166;2022-07-10T10:25:34;21.80;79.50
2913;DHT22;1466;48.778;9.166;2022-07-10T10:28:02;22.20;79.00
2913;DHT22;1466;48.778;9.166;2022-07-10T10:30:30;22.50;78.60
2913;DHT22;1466;48.778;9.166;2022-07-10T10:32:55;22.60;77.40
2913;DHT22;1466;48.778;9.166;2022-07-10T10:35:44;22.50;76.90
2913;DHT22;1466;48.778;9.166;2022-07-10T10:38:12;22.20;77.40
2913;DHT22;1466;48.778;9.166;2022-07-10T10:40:39;21.90;77.00
2913;DHT22;1466;48.778;9.166;2022-07-10T10:43:21;21.60;76.50
2913;DHT22;1466;48.778;9.166;2022-07-10T10:45:47;21.60;76.70
2913;DHT22;1466;48.778;9.166;2022-07-10T10:48:14;21.30;76.90
2913;DHT22;1466;48.778;9.166;2022-07-10T10:50:53;21.10;77.30
2913;DHT22;1466;48.778;9.166;2022-07-10T10:53:22;21.00;78.30
2913;DHT22;1466;48.778;9.166;2022-07-10T10:58:27;21.10;79.40
2913;DHT22;1466;48.778;9.166;2022-07-10T11:01:03;21.20;79.80
2913;DHT22;1466;48.778;9.166;2022-07-10T11:03:29;21.20;79.40
2913;DHT22;1466;48.778;9.166;2022-07-10T11:05:55;21.30;79.50
2913;DHT22;1466;48.778;9.166;2022-07-10T11:13:59;21.20;77.50
2913;DHT22;1466;48.778;9.166;2022-07-10T11:16:25;21.30;76.80
2913;DHT22;1466;48.778;9.166;2022-07-10T11:18:54;21.20;77.30
2913;DHT22;1466;48.778;9.166;2022-07-10T11:21:25;21.20;77.10
2913;DHT22;1466;48.778;9.166;2022-07-10T11:23:59;21.40;76.40
2913;DHT22;1466;48.778;9.166;2022-07-10T11:27:06;21.70;75.70
2913;DHT22;1466;48.778;9.166;2022-07-10T11:29:38;21.90;74.40
2913;DHT22;1466;48.778;9.166;2022-07-10T11:32:04;21.90;73.30
2913;DHT22;1466;48.778;9.166;2022-07-10T11:34:36;21.90;73.00
2913;DHT22;1466;48.778;9.166;2022-07-10T11:37:15;22.00;72.60
2913;DHT22;1466;48.778;9.166;2022-07-10T11:39:41;22.10;72.20
2913;DHT22;1466;48.778;9.166;2022-07-10T11:42:07;22.10;71.80
2913;DHT22;1466;48.778;9.166;2022-07-10T11:44:32;22.10;71.80
2913;DHT22;1466;48.778;9.166;2022-07-10T11:46:58;22.10;71.60
2913;DHT22;1466;48.778;9.166;2022-07-10T11:49:25;22.00;72.20
2913;DHT22;1466;48.778;9.166;2022-07-10T11:51:52;21.70;72.80
2913;DHT22;1466;48.778;9.166;2022-07-10T11:54:19;21.50;73.50
2913;DHT22;1466;48.778;9.166;2022-07-10T11:56:52;21.50;73.20
2913;DHT22;1466;48.778;9.166;2022-07-10T12:02:01;21.60;73.30
2913;DHT22;1466;48.778;9.166;2022-07-10T12:04:29;21.80;72.50
2913;DHT22;1466;48.778;9.166;2022-07-10T12:06:55;21.90;71.60
2913;DHT22;1466;48.778;9.166;2022-07-10T12:09:22;22.00;71.20
2913;DHT22;1466;48.778;9.166;2022-07-10T12:12:03;22.00;71.10
2913;DHT22;1466;48.778;9.166;2022-07-10T12:14:30;22.00;71.20
2913;DHT22;1466;48.778;9.166;2022-07-10T12:16:57;22.00;70.80
2913;DHT22;1466;48.778;9.166;2022-07-10T12:19:28;21.90;70.60
2913;DHT22;1466;48.778;9.166;2022-07-10T12:21:56;22.00;70.00
2913;DHT22;1466;48.778;9.166;2022-07-10T12:24:22;22.00;69.70
2913;DHT22;1466;48.778;9.166;2022-07-10T12:26:49;22.00;69.40
2913;DHT22;1466;48.778;9.166;2022-07-10T12:31:44;21.70;69.20
2913;DHT22;1466;48.778;9.166;2022-07-10T12:34:11;21.80;68.80
2913;DHT22;1466;48.778;9.166;2022-07-10T12:39:13;21.70;67.70
2913;DHT22;1466;48.778;9.166;2022-07-10T12:47:08;21.90;68.70
2913;DHT22;1466;48.778;9.166;2022-07-10T12:50:04;21.80;68.60
2913;DHT22;1466;48.778;9.166;2022-07-10T12:52:35;21.60;68.90
2913;DHT22;1466;48.778;9.166;2022-07-10T13:02:49;21.30;67.70
2913;DHT22;1466;48.778;9.166;2022-07-10T13:10:33;21.70;68.50
2913;DHT22;1466;48.778;9.166;2022-07-10T13:12:59;21.90;68.70
2913;DHT22;1466;48.778;9.166;2022-07-10T13:15:26;21.80;67.60
2913;DHT22;1466;48.778;9.166;2022-07-10T13:17:52;21.70;67.70
2913;DHT22;1466;48.778;9.166;2022-07-10T13:20:18;21.60;67.90
2913;DHT22;1466;48.778;9.166;2022-07-10T13:22:43;21.70;67.70
2913;DHT22;1466;48.778;9.166;2022-07-10T13:25:09;21.70;68.00
2913;DHT22;1466;48.778;9.166;2022-07-10T13:27:34;21.70;67.80
2913;DHT22;1466;48.778;9.166;2022-07-10T13:30:05;21.70;67.00
2913;DHT22;1466;48.778;9.166;2022-07-10T13:32:31;21.90;67.00
2913;DHT22;1466;48.778;9.166;2022-07-10T13:34:57;21.80;67.30
2913;DHT22;1466;48.778;9.166;2022-07-10T13:37:22;21.90;67.50
2913;DHT22;1466;48.778;9.166;2022-07-10T13:39:48;21.80;67.50
2913;DHT22;1466;48.778;9.166;2022-07-10T13:42:14;21.70;68.10
2913;DHT22;1466;48.778;9.166;2022-07-10T13:44:39;21.80;68.30
2913;DHT22;1466;48.778;9.166;2022-07-10T13:47:05;21.80;67.80
2913;DHT22;1466;48.778;9.166;2022-07-10T13:49:31;21.90;67.80
2913;DHT22;1466;48.778;9.166;2022-07-10T13:51:57;21.90;67.70
2913;DHT22;1466;48.778;9.166;2022-07-10T13:54:23;21.80;68.60
2913;DHT22;1466;48.778;9.166;2022-07-10T13:56:49;21.80;68.90
2913;DHT22;1466;48.778;9.166;2022-07-10T13:59:14;21.90;69.40
2913;DHT22;1466;48.778;9.166;2022-07-10T14:01:40;22.00;69.30
2913;DHT22;1466;48.778;9.166;2022-07-10T14:04:05;22.10;68.20
2913;DHT22;1466;48.778;9.166;2022-07-10T14:06:32;22.10;67.80
2913;DHT22;1466;48.778;9.166;2022-07-10T14:08:58;22.10;68.10
2913;DHT22;1466;48.778;9.166;2022-07-10T14:11:23;21.90;68.30
2913;DHT22;1466;48.778;9.166;2022-07-10T14:13:49;21.80;68.80
2913;DHT22;1466;48.778;9.166;2022-07-10T14:16:15;21.80;69.10
2913;DHT22;1466;48.778;9.166;2022-07-10T14:18:40;21.80;69.20
2913;DHT22;1466;48.778;9.166;2022-07-10T14:21:11;21.90;68.70
2913;DHT22;1466;48.778;9.166;2022-07-10T14:23:39;22.00;68.80
2913;DHT22;1466;48.778;9.166;2022-07-10T14:26:07;22.20;69.10
2913;DHT22;1466;48.778;9.166;2022-07-10T14:28:33;22.00;67.80
2913;DHT22;1466;48.778;9.166;2022-07-10T14:31:03;22.20;68.00
2913;DHT22;1466;48.778;9.166;2022-07-10T14:33:31;22.10;67.60
2913;DHT22;1466;48.778;9.166;2022-07-10T14:35:56;22.10;67.40
2913;DHT22;1466;48.778;9.166;2022-07-10T14:38:22;22.20;67.50
2913;DHT22;1466;48.778;9.166;2022-07-10T14:40:48;22.30;67.00
2913;DHT22;1466;48.778;9.166;2022-07-10T14:43:17;22.30;66.30
2913;DHT22;1466;48.778;9.166;2022-07-10T14:45:42;22.30;66.60
2913;DHT22;1466;48.778;9.166;2022-07-10T14:48:08;22.30;66.90
2913;DHT22;1466;48.778;9.166;2022-07-10T14:50:33;22.40;67.10
2913;DHT22;1466;48.778;9.166;2022-07-10T14:52:59;22.50;67.00
2913;DHT22;1466;48.778;9.166;2022-07-10T14:55:25;22.40;66.40
2913;DHT22;1466;48.778;9.166;2022-07-10T14:57:50;22.40;66.80
2913;DHT22;1466;48.778;9.166;2022-07-10T15:00:16;22.50;66.90
2913;DHT22;1466;48.778;9.166;2022-07-10T15:02:44;22.50;67.20
2913;DHT22;1466;48.778;9.166;2022-07-10T15:05:09;22.40;66.50
2913;DHT22;1466;48.778;9.166;2022-07-10T15:07:35;22.10;65.10
2913;DHT22;1466;48.778;9.166;2022-07-10T15:10:00;22.00;65.40
2913;DHT22;1466;48.778;9.166;2022-07-10T15:12:26;21.90;65.70
2913;DHT22;1466;48.778;9.166;2022-07-10T15:14:52;21.80;65.40
2913;DHT22;1466;48.778;9.166;2022-07-10T15:17:18;21.80;66.10
2913;DHT22;1466;48.778;9.166;2022-07-10T15:19:44;22.00;66.40
2913;DHT22;1466;48.778;9.166;2022-07-10T15:22:09;22.00;66.00
2913;DHT22;1466;48.778;9.166;2022-07-10T15:24:35;21.90;66.10
2913;DHT22;1466;48.778;9.166;2022-07-10T15:27:00;22.00;66.30
2913;DHT22;1466;48.778;9.166;2022-07-10T15:29:26;22.10;66.10
2913;DHT22;1466;48.778;9.166;2022-07-10T15:31:52;22.20;65.90
2913;DHT22;1466;48.778;9.166;2022-07-10T15:34:18;22.40;66.10
2913;DHT22;1466;48.778;9.166;2022-07-10T15:36:43;22.50;65.80
2913;DHT22;1466;48.778;9.166;2022-07-10T15:39:12;22.50;64.60
2913;DHT22;1466;48.778;9.166;2022-07-10T15:41:38;22.30;64.50
2913;DHT22;1466;48.778;9.166;2022-07-10T15:44:06;22.30;65.10
2913;DHT22;1466;48.778;9.166;2022-07-10T15:46:31;22.30;64.90
2913;DHT22;1466;48.778;9.166;2022-07-10T15:48:57;22.40;64.50
2913;DHT22;1466;48.778;9.166;2022-07-10T15:51:25;22.40;64.40
2913;DHT22;1466;48.778;9.166;2022-07-10T15:53:50;22.40;64.50
2913;DHT22;1466;48.778;9.166;2022-07-10T15:56:16;22.50;64.50
2913;DHT22;1466;48.778;9.166;2022-07-10T15:58:41;22.50;64.80
2913;DHT22;1466;48.778;9.166;2022-07-10T16:01:09;22.50;64.20
2913;DHT22;1466;48.778;9.166;2022-07-10T16:03:35;22.40;64.40
2913;DHT22;1466;48.778;9.166;2022-07-10T16:06:01;22.40;64.60
2913;DHT22;1466;48.778;9.166;2022-07-10T16:08:27;22.60;64.80
2913;DHT22;1466;48.778;9.166;2022-07-10T16:10:53;22.60;64.40
2913;DHT22;1466;48.778;9.166;2022-07-10T16:13:18;22.60;64.70
2913;DHT22;1466;48.778;9.166;2022-07-10T16:15:44;22.80;65.00
2913;DHT22;1466;48.778;9.166;2022-07-10T16:18:10;22.80;64.20
2913;DHT22;1466;48.778;9.166;2022-07-10T16:20:36;22.80;64.20
2913;DHT22;1466;48.778;9.166;2022-07-10T16:23:03;22.80;64.20
2913;DHT22;1466;48.778;9.166;2022-07-10T16:25:29;22.90;64.60
2913;DHT22;1466;48.778;9.166;2022-07-10T16:28:13;23.00;64.30
2913;DHT22;1466;48.778;9.166;2022-07-10T16:30:39;23.00;64.00
2913;DHT22;1466;48.778;9.166;2022-07-10T16:33:04;23.00;64.40
2913;DHT22;1466;48.778;9.166;2022-07-10T16:35:30;23.10;64.40
2913;DHT22;1466;48.778;9.166;2022-07-10T16:37:56;23.20;64.30
2913;DHT22;1466;48.778;9.166;2022-07-10T16:40:21;23.10;64.00
2913;DHT22;1466;48.778;9.166;2022-07-10T16:42:47;23.00;63.80
2913;DHT22;1466;48.778;9.166;2022-07-10T16:45:13;23.00;63.50